createdAt,value
2019-02-14T00:00:14.917Z,92.4
2019-02-14T00:01:14.975Z,92.4
2019-02-14T00:02:15.240Z,92.4
2019-02-14T00:03:15.515Z,92.6
2019-02-14T00:04:14.778Z,92.6
2019-02-14T00:05:16.927Z,92.6
2019-02-14T00:06:15.199Z,92.7
2019-02-14T00:07:15.472Z,92.8
2019-02-14T00:08:14.749Z,92.7
2019-02-14T00:09:15.018Z,92.7
2019-02-14T00:10:15.287Z,92.6
2019-02-14T00:11:15.350Z,92.5
2019-02-14T00:12:14.620Z,92.4
2019-02-14T00:13:14.885Z,92.4
2019-02-14T00:14:15.154Z,92.5
2019-02-14T00:15:15.426Z,92.6
2019-02-14T00:16:14.692Z,92.8
2019-02-14T00:17:14.956Z,93.0
2019-02-14T00:18:15.212Z,93.1
2019-02-14T00:19:15.481Z,93.1
2019-02-14T00:20:14.771Z,93.2
2019-02-14T00:21:14.824Z,93.1
2019-02-14T00:22:15.083Z,93.1
2019-02-14T00:23:15.351Z,93.1
2019-02-14T00:24:14.618Z,93.2
2019-02-14T00:25:14.891Z,93.2
2019-02-14T00:26:15.158Z,93.1
2019-02-14T00:27:15.414Z,93.0
2019-02-14T00:28:14.688Z,93.0
2019-02-14T00:29:14.965Z,92.9
2019-02-14T00:30:15.234Z,92.8
2019-02-14T00:31:15.279Z,92.7
2019-02-14T00:32:15.538Z,92.8
2019-02-14T00:33:14.820Z,92.8
2019-02-14T00:34:15.094Z,92.8
2019-02-14T00:35:15.352Z,92.8
2019-02-14T00:36:14.627Z,93.0
2019-02-14T00:37:14.891Z,92.9
2019-02-14T00:38:15.166Z,93.0
2019-02-14T00:39:15.434Z,93.0
2019-02-14T00:40:14.715Z,93.1
2019-02-14T00:41:14.760Z,93.1
2019-02-14T00:42:15.030Z,93.2
2019-02-14T00:43:15.308Z,93.3
2019-02-14T00:44:15.588Z,93.4
2019-02-14T00:45:14.856Z,93.5
2019-02-14T00:46:15.133Z,93.5
2019-02-14T00:47:15.397Z,93.7
2019-02-14T00:48:14.662Z,93.7
2019-02-14T00:49:14.938Z,93.7
2019-02-14T00:50:15.219Z,93.7
2019-02-14T00:51:15.254Z,93.7
2019-02-14T00:52:15.520Z,93.7
2019-02-14T00:53:14.791Z,93.7
2019-02-14T00:54:15.061Z,93.7
2019-02-14T00:55:15.322Z,93.7
2019-02-14T00:56:15.591Z,93.6
2019-02-14T00:57:14.854Z,93.7
2019-02-14T00:58:15.119Z,93.8
2019-02-14T00:59:15.385Z,93.8
2019-02-14T01:00:14.657Z,93.8
2019-02-14T01:01:14.697Z,93.8
2019-02-14T01:02:14.976Z,93.9
2019-02-14T01:03:15.239Z,93.9
2019-02-14T01:04:15.774Z,93.8
2019-02-14T01:05:16.623Z,93.8
2019-02-14T01:06:14.936Z,93.8
2019-02-14T01:07:15.248Z,93.9
2019-02-14T01:08:15.533Z,93.8
2019-02-14T01:09:14.809Z,93.8
2019-02-14T01:10:15.090Z,93.8
2019-02-14T01:11:15.164Z,93.8
2019-02-14T01:12:15.430Z,93.8
2019-02-14T01:13:14.698Z,93.8
2019-02-14T01:14:14.970Z,93.8
2019-02-14T01:15:15.245Z,93.9
2019-02-14T01:16:15.506Z,93.9
2019-02-14T01:17:14.771Z,93.8
2019-02-14T01:18:15.039Z,93.9
2019-02-14T01:19:15.620Z,93.9
2019-02-14T01:20:14.893Z,93.8
2019-02-14T01:21:14.952Z,93.7
2019-02-14T01:22:15.233Z,93.7
2019-02-14T01:23:15.497Z,93.8
2019-02-14T01:24:14.770Z,93.8
2019-02-14T01:25:15.032Z,93.8
2019-02-14T01:26:15.299Z,93.9
2019-02-14T01:27:15.569Z,93.9
2019-02-14T01:28:14.835Z,94.0
2019-02-14T01:29:15.105Z,94.0
2019-02-14T01:30:15.396Z,94.0
2019-02-14T01:31:15.456Z,93.9
2019-02-14T01:32:14.722Z,94.0
2019-02-14T01:33:14.981Z,94.0
2019-02-14T01:34:15.239Z,94.2
2019-02-14T01:35:15.500Z,94.3
2019-02-14T01:36:14.774Z,94.3
2019-02-14T01:37:15.051Z,94.2
2019-02-14T01:38:15.318Z,94.2
2019-02-14T01:39:15.608Z,94.2
2019-02-14T01:40:14.870Z,94.3
2019-02-14T01:41:14.945Z,94.4
2019-02-14T01:42:15.211Z,94.5
2019-02-14T01:43:15.470Z,94.5
2019-02-14T01:44:14.733Z,94.5
2019-02-14T01:45:14.993Z,94.5
2019-02-14T01:46:15.254Z,94.5
2019-02-14T01:47:15.534Z,94.5
2019-02-14T01:48:14.794Z,94.5
2019-02-14T01:49:15.064Z,94.5
2019-02-14T01:50:15.350Z,94.5
2019-02-14T01:51:15.398Z,94.7
2019-02-14T01:52:14.667Z,94.7
2019-02-14T01:53:14.940Z,94.7
2019-02-14T01:54:15.205Z,94.7
2019-02-14T01:55:15.464Z,94.5
2019-02-14T01:56:14.728Z,94.5
2019-02-14T01:57:14.990Z,94.5
2019-02-14T01:58:15.260Z,94.5
2019-02-14T01:59:15.992Z,94.5
2019-02-14T02:00:15.302Z,94.5
2019-02-14T02:01:15.328Z,94.5
2019-02-14T02:02:15.591Z,94.4
2019-02-14T02:03:14.875Z,94.4
2019-02-14T02:04:15.144Z,94.5
2019-02-14T02:05:15.413Z,94.5
2019-02-14T02:06:14.677Z,94.5
2019-02-14T02:07:14.936Z,94.6
2019-02-14T02:08:15.214Z,94.7
2019-02-14T02:09:15.541Z,94.6
2019-02-14T02:10:14.819Z,94.6
2019-02-14T02:11:14.894Z,94.7
2019-02-14T02:12:15.159Z,94.7
2019-02-14T02:13:15.424Z,94.6
2019-02-14T02:14:14.688Z,94.6
2019-02-14T02:15:14.998Z,94.6
2019-02-14T02:16:15.267Z,94.7
2019-02-14T02:17:15.530Z,94.7
2019-02-14T02:18:14.850Z,94.5
2019-02-14T02:19:15.137Z,94.5
2019-02-14T02:20:15.403Z,94.3
2019-02-14T02:21:15.470Z,94.3
2019-02-14T02:22:14.743Z,94.3
2019-02-14T02:23:15.001Z,94.2
2019-02-14T02:24:15.265Z,94.1
2019-02-14T02:25:15.553Z,94.0
2019-02-14T02:26:14.815Z,94.0
2019-02-14T02:27:15.085Z,94.3
2019-02-14T02:28:15.341Z,94.5
2019-02-14T02:29:14.601Z,94.6
2019-02-14T02:30:14.892Z,94.5
2019-02-14T02:31:14.940Z,94.6
2019-02-14T02:32:15.200Z,94.7
2019-02-14T02:33:15.473Z,94.6
2019-02-14T02:34:14.745Z,94.5
2019-02-14T02:35:15.032Z,94.6
2019-02-14T02:36:15.309Z,94.5
2019-02-14T02:37:15.590Z,94.7
2019-02-14T02:38:14.862Z,94.8
2019-02-14T02:39:15.134Z,94.8
2019-02-14T02:40:15.479Z,94.7
2019-02-14T02:41:15.493Z,94.6
2019-02-14T02:42:14.772Z,94.7
2019-02-14T02:43:15.052Z,94.6
2019-02-14T02:44:15.324Z,94.5
2019-02-14T02:45:15.609Z,94.3
2019-02-14T02:46:14.883Z,94.5
2019-02-14T02:47:15.208Z,94.7
2019-02-14T02:48:15.476Z,94.7
2019-02-14T02:49:14.744Z,94.7
2019-02-14T02:50:15.017Z,94.7
2019-02-14T02:51:15.077Z,94.7
2019-02-14T02:52:15.365Z,94.8
2019-02-14T02:53:14.634Z,94.8
2019-02-14T02:54:14.907Z,94.8
2019-02-14T02:55:15.175Z,94.2
2019-02-14T02:56:15.443Z,94.2
2019-02-14T02:57:14.708Z,94.3
2019-02-14T02:58:14.971Z,94.4
2019-02-14T02:59:15.250Z,94.5
2019-02-14T03:00:15.531Z,94.5
2019-02-14T03:01:15.585Z,94.6
2019-02-14T03:02:14.852Z,94.5
2019-02-14T03:03:15.120Z,94.5
2019-02-14T03:04:15.258Z,94.5
2019-02-14T03:05:15.533Z,94.3
2019-02-14T03:06:14.807Z,94.3
2019-02-14T03:07:15.091Z,94.3
2019-02-14T03:08:15.359Z,94.4
2019-02-14T03:09:14.628Z,94.4
2019-02-14T03:10:14.910Z,94.6
2019-02-14T03:11:14.976Z,94.8
2019-02-14T03:12:15.239Z,94.7
2019-02-14T03:13:15.510Z,94.8
2019-02-14T03:14:14.779Z,94.8
2019-02-14T03:15:15.073Z,94.8
2019-02-14T03:16:15.339Z,94.8
2019-02-14T03:17:14.612Z,94.7
2019-02-14T03:18:14.886Z,94.5
2019-02-14T03:19:15.158Z,94.3
2019-02-14T03:20:15.426Z,94.2
2019-02-14T03:21:15.491Z,94.3
2019-02-14T03:22:14.768Z,94.4
2019-02-14T03:23:15.034Z,94.4
2019-02-14T03:24:15.296Z,94.4
2019-02-14T03:25:15.567Z,94.5
2019-02-14T03:26:14.841Z,94.6
2019-02-14T03:27:15.117Z,94.7
2019-02-14T03:28:15.385Z,94.8
2019-02-14T03:29:14.646Z,94.7
2019-02-14T03:30:15.059Z,94.6
2019-02-14T03:31:14.993Z,94.4
2019-02-14T03:32:15.256Z,94.2
2019-02-14T03:33:15.613Z,94.3
2019-02-14T03:34:14.878Z,94.3
2019-02-14T03:35:15.171Z,94.4
2019-02-14T03:36:19.571Z,94.4
2019-02-14T03:37:14.869Z,94.3
2019-02-14T03:38:15.141Z,94.3
2019-02-14T03:39:15.413Z,94.3
2019-02-14T03:40:14.701Z,94.5
2019-02-14T03:41:14.770Z,94.5
2019-02-14T03:42:15.027Z,94.5
2019-02-14T03:43:15.293Z,94.5
2019-02-14T03:44:15.552Z,94.5
2019-02-14T03:45:14.839Z,94.6
2019-02-14T03:46:15.105Z,94.7
2019-02-14T03:47:15.368Z,94.6
2019-02-14T03:48:14.636Z,94.6
2019-02-14T03:49:14.898Z,94.7
2019-02-14T03:50:15.186Z,94.7
2019-02-14T03:51:15.240Z,94.7
2019-02-14T03:52:15.499Z,94.8
2019-02-14T03:53:14.774Z,94.8
2019-02-14T03:54:15.037Z,94.7
2019-02-14T03:55:15.312Z,94.6
2019-02-14T03:56:15.589Z,94.6
2019-02-14T03:57:14.874Z,94.6
2019-02-14T03:58:15.145Z,94.5
2019-02-14T03:59:15.407Z,94.5
2019-02-14T04:00:14.669Z,94.5
2019-02-14T04:01:14.738Z,94.4
2019-02-14T04:02:15.003Z,94.5
2019-02-14T04:03:15.263Z,94.6
2019-02-14T04:04:15.524Z,94.7
2019-02-14T04:05:14.793Z,94.8
2019-02-14T04:06:15.064Z,94.8
2019-02-14T04:07:15.341Z,94.8
2019-02-14T04:08:14.618Z,94.8
2019-02-14T04:09:14.887Z,94.8
2019-02-14T04:10:15.162Z,94.8
2019-02-14T04:11:15.219Z,94.8
2019-02-14T04:12:15.478Z,94.7
2019-02-14T04:13:14.743Z,94.8
2019-02-14T04:14:15.005Z,94.8
2019-02-14T04:15:15.290Z,94.8
2019-02-14T04:16:15.567Z,94.8
2019-02-14T04:17:14.849Z,94.8
2019-02-14T04:18:15.119Z,94.8
2019-02-14T04:19:15.394Z,94.9
2019-02-14T04:20:14.661Z,95.0
2019-02-14T04:21:14.725Z,95.0
2019-02-14T04:22:14.990Z,95.0
2019-02-14T04:23:15.261Z,95.1
2019-02-14T04:24:15.529Z,95.1
2019-02-14T04:25:14.800Z,95.0
2019-02-14T04:26:15.065Z,95.0
2019-02-14T04:27:15.325Z,94.9
2019-02-14T04:28:15.595Z,94.9
2019-02-14T04:29:14.855Z,94.9
2019-02-14T04:30:15.133Z,94.8
2019-02-14T04:31:15.174Z,94.8
2019-02-14T04:32:15.442Z,94.9
2019-02-14T04:33:14.705Z,94.9
2019-02-14T04:34:14.976Z,94.9
2019-02-14T04:35:15.250Z,94.8
2019-02-14T04:36:15.860Z,94.8
2019-02-14T04:37:15.125Z,94.8
2019-02-14T04:38:15.385Z,94.7
2019-02-14T04:39:14.660Z,94.6
2019-02-14T04:40:14.952Z,94.5
2019-02-14T04:41:15.005Z,94.5
2019-02-14T04:42:15.276Z,94.4
2019-02-14T04:43:15.547Z,94.4
2019-02-14T04:44:14.818Z,94.3
2019-02-14T04:45:15.092Z,94.4
2019-02-14T04:46:15.370Z,94.4
2019-02-14T04:47:14.638Z,94.6
2019-02-14T04:48:14.908Z,94.7
2019-02-14T04:49:15.176Z,94.7
2019-02-14T04:50:15.447Z,94.8
2019-02-14T04:51:15.665Z,94.7
2019-02-14T04:52:14.933Z,94.7
2019-02-14T04:53:15.197Z,94.8
2019-02-14T04:54:15.471Z,94.8
2019-02-14T04:55:14.741Z,94.8
2019-02-14T04:56:15.012Z,94.8
2019-02-14T04:57:15.280Z,94.8
2019-02-14T04:58:15.549Z,94.8
2019-02-14T04:59:14.815Z,94.9
2019-02-14T05:00:15.091Z,94.9
2019-02-14T05:01:15.136Z,94.9
2019-02-14T05:02:15.414Z,94.9
2019-02-14T05:03:14.681Z,95.0
2019-02-14T05:04:14.956Z,95.0
2019-02-14T05:05:15.222Z,95.0
2019-02-14T05:06:15.539Z,95.1
2019-02-14T05:07:14.832Z,95.2
2019-02-14T05:08:15.127Z,95.2
2019-02-14T05:09:15.398Z,95.2
2019-02-14T05:10:14.679Z,95.2
2019-02-14T05:11:14.742Z,95.3
2019-02-14T05:12:15.003Z,95.3
2019-02-14T05:13:15.270Z,95.4
2019-02-14T05:14:15.540Z,95.5
2019-02-14T05:15:14.841Z,95.5
2019-02-14T05:16:15.108Z,95.2
2019-02-14T05:17:15.374Z,95.1
2019-02-14T05:18:14.648Z,95.0
2019-02-14T05:19:14.919Z,95.0
2019-02-14T05:20:15.195Z,95.0
2019-02-14T05:21:15.270Z,95.0
2019-02-14T05:22:15.556Z,94.9
2019-02-14T05:23:14.828Z,94.9
2019-02-14T05:24:15.099Z,95.1
2019-02-14T05:25:15.384Z,95.1
2019-02-14T05:26:14.656Z,95.1
2019-02-14T05:27:14.924Z,95.2
2019-02-14T05:28:15.191Z,95.1
2019-02-14T05:29:15.452Z,95.2
2019-02-14T05:30:14.729Z,95.2
2019-02-14T05:31:14.783Z,95.2
2019-02-14T05:32:15.046Z,95.2
2019-02-14T05:33:15.309Z,95.2
2019-02-14T05:34:15.582Z,95.1
2019-02-14T05:35:14.879Z,95.1
2019-02-14T05:36:15.151Z,94.9
2019-02-14T05:37:15.415Z,94.8
2019-02-14T05:38:14.686Z,94.8
2019-02-14T05:39:14.948Z,94.8
2019-02-14T05:40:15.230Z,94.8
2019-02-14T05:41:15.286Z,94.8
2019-02-14T05:42:15.555Z,94.8
2019-02-14T05:43:14.823Z,94.8
2019-02-14T05:44:15.093Z,94.7
2019-02-14T05:45:15.400Z,94.5
2019-02-14T05:46:14.680Z,94.5
2019-02-14T05:47:14.956Z,94.4
2019-02-14T05:48:15.220Z,94.4
2019-02-14T05:49:15.485Z,94.5
2019-02-14T05:50:14.778Z,94.5
2019-02-14T05:51:14.823Z,94.5
2019-02-14T05:52:15.086Z,94.5
2019-02-14T05:53:15.348Z,94.5
2019-02-14T05:54:14.641Z,94.4
2019-02-14T05:55:14.917Z,94.5
2019-02-14T05:56:15.185Z,94.5
2019-02-14T05:57:15.458Z,94.6
2019-02-14T05:58:14.729Z,94.7
2019-02-14T05:59:15.009Z,94.7
2019-02-14T06:00:15.287Z,94.7
2019-02-14T06:01:15.363Z,94.7
2019-02-14T06:02:14.625Z,94.7
2019-02-14T06:03:14.890Z,94.7
2019-02-14T06:04:15.158Z,94.7
2019-02-14T06:05:15.423Z,94.8
2019-02-14T06:06:14.686Z,94.7
2019-02-14T06:07:14.982Z,94.6
2019-02-14T06:08:15.245Z,94.7
2019-02-14T06:09:15.508Z,94.7
2019-02-14T06:10:14.792Z,94.8
2019-02-14T06:11:14.851Z,94.6
2019-02-14T06:12:15.120Z,94.5
2019-02-14T06:13:15.386Z,94.5
2019-02-14T06:14:14.648Z,94.2
2019-02-14T06:15:14.919Z,94.2
2019-02-14T06:16:15.191Z,94.2
2019-02-14T06:17:15.469Z,94.1
2019-02-14T06:18:14.740Z,94.1
2019-02-14T06:19:15.017Z,94.2
2019-02-14T06:20:15.283Z,94.2
2019-02-14T06:21:15.370Z,94.2
2019-02-14T06:22:14.672Z,94.3
2019-02-14T06:23:14.957Z,94.4
2019-02-14T06:24:15.222Z,94.6
2019-02-14T06:25:15.511Z,94.7
2019-02-14T06:26:14.791Z,94.7
2019-02-14T06:27:15.057Z,94.8
2019-02-14T06:28:15.327Z,94.8
2019-02-14T06:29:14.583Z,94.8
2019-02-14T06:30:14.877Z,94.8
2019-02-14T06:31:14.921Z,94.8
2019-02-14T06:32:15.193Z,94.6
2019-02-14T06:33:15.458Z,94.5
2019-02-14T06:34:14.717Z,94.2
2019-02-14T06:35:14.990Z,93.8
2019-02-14T06:36:15.278Z,93.7
2019-02-14T06:37:15.534Z,93.8
2019-02-14T06:38:14.791Z,93.8
2019-02-14T06:39:15.071Z,93.8
2019-02-14T06:40:15.343Z,93.8
2019-02-14T06:41:15.381Z,93.7
2019-02-14T06:42:14.641Z,93.8
2019-02-14T06:43:14.912Z,94.0
2019-02-14T06:44:15.175Z,94.2
2019-02-14T06:45:15.452Z,94.0
2019-02-14T06:46:14.709Z,94.0
2019-02-14T06:47:14.979Z,94.0
2019-02-14T06:48:15.253Z,94.0
2019-02-14T06:49:15.511Z,94.0
2019-02-14T06:50:14.786Z,94.0
2019-02-14T06:51:14.850Z,94.2
2019-02-14T06:52:15.112Z,94.0
2019-02-14T06:53:15.376Z,94.0
2019-02-14T06:54:14.646Z,94.0
2019-02-14T06:55:14.911Z,94.1
2019-02-14T06:56:15.185Z,94.1
2019-02-14T06:57:15.461Z,94.2
2019-02-14T06:58:14.717Z,94.2
2019-02-14T06:59:14.985Z,94.2
2019-02-14T07:00:15.267Z,94.2
2019-02-14T07:01:15.320Z,94.2
2019-02-14T07:02:15.584Z,94.2
2019-02-14T07:03:14.838Z,94.1
2019-02-14T07:04:15.104Z,94.1
2019-02-14T07:05:15.417Z,94.0
2019-02-14T07:06:14.679Z,94.0
2019-02-14T07:07:19.073Z,94.0
2019-02-14T07:08:15.685Z,93.8
2019-02-14T07:09:14.978Z,93.5
2019-02-14T07:10:15.260Z,93.5
2019-02-14T07:11:15.326Z,93.3
2019-02-14T07:12:14.592Z,93.4
2019-02-14T07:13:14.861Z,93.4
2019-02-14T07:14:15.133Z,93.3
2019-02-14T07:15:15.446Z,93.6
2019-02-14T07:16:14.709Z,93.6
2019-02-14T07:17:14.981Z,93.6
2019-02-14T07:18:15.259Z,93.6
2019-02-14T07:19:15.522Z,93.6
2019-02-14T07:20:14.801Z,93.5
2019-02-14T07:21:14.847Z,93.5
2019-02-14T07:22:15.126Z,93.6
2019-02-14T07:23:15.390Z,93.7
2019-02-14T07:24:14.651Z,93.6
2019-02-14T07:25:14.928Z,93.3
2019-02-14T07:26:15.195Z,93.5
2019-02-14T07:27:15.452Z,93.3
2019-02-14T07:28:14.725Z,93.3
2019-02-14T07:29:15.017Z,93.2
2019-02-14T07:30:15.299Z,93.2
2019-02-14T07:31:15.360Z,93.2
2019-02-14T07:32:14.641Z,93.0
2019-02-14T07:33:14.955Z,93.0
2019-02-14T07:34:15.227Z,93.0
2019-02-14T07:35:15.497Z,93.0
2019-02-14T07:36:14.773Z,93.0
2019-02-14T07:37:15.032Z,93.0
2019-02-14T07:38:15.307Z,92.7
2019-02-14T07:39:15.579Z,92.6
2019-02-14T07:40:14.864Z,92.5
2019-02-14T07:41:14.941Z,92.5
2019-02-14T07:42:15.217Z,92.3
2019-02-14T07:43:15.473Z,92.2
2019-02-14T07:44:14.738Z,92.0
2019-02-14T07:45:15.007Z,91.8
2019-02-14T07:46:23.076Z,91.7
2019-02-14T07:47:15.374Z,91.7
2019-02-14T07:48:14.638Z,91.6
2019-02-14T07:49:14.905Z,91.4
2019-02-14T07:50:15.198Z,91.5
2019-02-14T07:51:15.281Z,91.5
2019-02-14T07:52:15.558Z,91.3
2019-02-14T07:53:14.831Z,91.2
2019-02-14T07:54:15.104Z,91.1
2019-02-14T07:55:15.656Z,90.8
2019-02-14T07:56:15.020Z,90.5
2019-02-14T07:57:15.284Z,90.3
2019-02-14T07:58:15.551Z,90.2
2019-02-14T07:59:14.821Z,90.2
2019-02-14T08:00:15.103Z,90.4
2019-02-14T08:01:15.166Z,90.5
2019-02-14T08:02:15.436Z,90.6
2019-02-14T08:03:14.701Z,90.6
2019-02-14T08:04:14.976Z,90.6
2019-02-14T08:05:15.248Z,90.3
2019-02-14T08:06:15.560Z,90.2
2019-02-14T08:07:14.834Z,90.0
2019-02-14T08:08:15.099Z,89.8
2019-02-14T08:09:15.368Z,89.7
2019-02-14T08:10:14.670Z,89.5
2019-02-14T08:11:14.710Z,89.3
2019-02-14T08:12:14.989Z,89.2
2019-02-14T08:13:15.258Z,89.2
2019-02-14T08:14:15.527Z,89.1
2019-02-14T08:15:14.805Z,89.0
2019-02-14T08:16:15.078Z,88.6
2019-02-14T08:17:15.351Z,88.6
2019-02-14T08:18:14.615Z,88.6
2019-02-14T08:19:14.897Z,88.8
2019-02-14T08:20:15.215Z,88.7
2019-02-14T08:21:15.228Z,88.4
2019-02-14T08:22:15.495Z,88.4
2019-02-14T08:23:14.760Z,88.7
2019-02-14T08:24:15.030Z,88.8
2019-02-14T08:25:15.315Z,88.5
2019-02-14T08:26:15.601Z,88.2
2019-02-14T08:27:14.861Z,88.1
2019-02-14T08:28:15.138Z,88.0
2019-02-14T08:29:15.410Z,87.8
2019-02-14T08:30:14.696Z,88.2
2019-02-14T08:31:14.760Z,88.5
2019-02-14T08:32:15.035Z,88.7
2019-02-14T08:33:15.292Z,88.2
2019-02-14T08:34:15.567Z,87.7
2019-02-14T08:35:14.843Z,87.4
2019-02-14T08:36:15.118Z,87.3
2019-02-14T08:37:15.402Z,87.3
2019-02-14T08:38:14.673Z,87.2
2019-02-14T08:39:14.950Z,87.2
2019-02-14T08:40:15.217Z,87.1
2019-02-14T08:41:15.270Z,87.0
2019-02-14T08:42:15.540Z,87.0
2019-02-14T08:43:14.813Z,86.8
2019-02-14T08:44:15.096Z,87.2
2019-02-14T08:45:15.360Z,87.5
2019-02-14T08:46:14.636Z,87.5
2019-02-14T08:47:14.915Z,87.2
2019-02-14T08:48:15.182Z,87.3
2019-02-14T08:49:15.464Z,87.0
2019-02-14T08:50:14.731Z,87.2
2019-02-14T08:51:14.792Z,87.1
2019-02-14T08:52:15.054Z,87.3
2019-02-14T08:53:15.342Z,86.9
2019-02-14T08:54:14.627Z,86.8
2019-02-14T08:55:14.910Z,86.8
2019-02-14T08:56:15.166Z,86.3
2019-02-14T08:57:15.474Z,86.3
2019-02-14T08:58:14.748Z,86.7
2019-02-14T08:59:15.017Z,86.8
2019-02-14T09:00:15.292Z,86.3
2019-02-14T09:01:15.338Z,86.5
2019-02-14T09:02:14.595Z,87.3
2019-02-14T09:03:14.866Z,87.2
2019-02-14T09:04:15.125Z,86.9
2019-02-14T09:05:15.435Z,87.1
2019-02-14T09:06:14.699Z,87.2
2019-02-14T09:07:14.960Z,87.1
2019-02-14T09:08:15.223Z,87.1
2019-02-14T09:09:15.501Z,86.2
2019-02-14T09:10:14.776Z,85.8
2019-02-14T09:11:14.843Z,85.7
2019-02-14T09:12:15.108Z,85.0
2019-02-14T09:13:17.632Z,85.2
2019-02-14T09:14:14.909Z,85.2
2019-02-14T09:15:15.182Z,85.2
2019-02-14T09:16:15.453Z,84.7
2019-02-14T09:17:14.722Z,84.1
2019-02-14T09:18:14.986Z,84.3
2019-02-14T09:19:15.251Z,84.0
2019-02-14T09:20:15.539Z,84.0
2019-02-14T09:21:15.580Z,83.4
2019-02-14T09:22:14.850Z,83.2
2019-02-14T09:23:15.124Z,82.9
2019-02-14T09:24:15.418Z,82.2
2019-02-14T09:25:14.699Z,82.0
2019-02-14T09:26:14.975Z,82.2
2019-02-14T09:27:15.253Z,82.5
2019-02-14T09:28:15.514Z,82.2
2019-02-14T09:29:14.800Z,82.0
2019-02-14T09:30:15.133Z,81.7
2019-02-14T09:31:15.143Z,81.8
2019-02-14T09:32:15.667Z,82.2
2019-02-14T09:33:14.941Z,81.5
2019-02-14T09:34:15.205Z,81.8
2019-02-14T09:35:15.469Z,81.2
2019-02-14T09:36:14.737Z,81.2
2019-02-14T09:37:15.021Z,80.6
2019-02-14T09:38:15.277Z,81.1
2019-02-14T09:39:15.554Z,80.4
2019-02-14T09:40:14.831Z,80.7
2019-02-14T09:41:14.883Z,80.5
2019-02-14T09:42:15.155Z,80.4
2019-02-14T09:43:15.423Z,80.4
2019-02-14T09:44:14.707Z,80.6
2019-02-14T09:45:15.038Z,80.5
2019-02-14T09:46:15.313Z,80.7
2019-02-14T09:47:14.613Z,80.2
2019-02-14T09:48:14.897Z,80.0
2019-02-14T09:49:15.163Z,79.6
2019-02-14T09:50:15.451Z,79.4
2019-02-14T09:51:15.498Z,79.1
2019-02-14T09:52:14.763Z,78.8
2019-02-14T09:53:15.037Z,78.5
2019-02-14T09:54:15.331Z,78.8
2019-02-14T09:55:14.608Z,78.5
2019-02-14T09:56:14.881Z,78.3
2019-02-14T09:57:15.156Z,77.8
2019-02-14T09:58:15.420Z,77.9
2019-02-14T09:59:14.703Z,77.2
2019-02-14T10:00:14.997Z,77.0
2019-02-14T10:01:15.034Z,77.2
2019-02-14T10:02:15.313Z,77.1
2019-02-14T10:03:15.612Z,77.7
2019-02-14T10:04:14.880Z,77.8
2019-02-14T10:05:15.192Z,77.6
2019-02-14T10:06:15.471Z,77.7
2019-02-14T10:07:14.774Z,78.0
2019-02-14T10:08:15.052Z,77.8
2019-02-14T10:09:15.347Z,77.7
2019-02-14T10:10:14.689Z,77.5
2019-02-14T10:11:14.736Z,77.4
2019-02-14T10:12:15.012Z,77.8
2019-02-14T10:13:15.278Z,76.1
2019-02-14T10:14:15.564Z,76.1
2019-02-14T10:15:14.831Z,76.3
2019-02-14T10:16:15.109Z,77.1
2019-02-14T10:17:22.539Z,77.2
2019-02-14T10:18:14.836Z,76.6
2019-02-14T10:19:15.095Z,76.8
2019-02-14T10:20:15.373Z,76.2
2019-02-14T10:21:15.433Z,75.9
2019-02-14T10:22:14.695Z,76.2
2019-02-14T10:23:14.971Z,75.6
2019-02-14T10:24:15.241Z,75.2
2019-02-14T10:25:15.525Z,75.3
2019-02-14T10:26:14.785Z,75.4
2019-02-14T10:27:15.053Z,75.0
2019-02-14T10:28:15.321Z,74.9
2019-02-14T10:29:14.592Z,74.8
2019-02-14T10:30:14.865Z,74.5
2019-02-14T10:31:14.910Z,74.1
2019-02-14T10:32:15.173Z,74.5
2019-02-14T10:33:15.436Z,74.2
2019-02-14T10:34:14.701Z,74.7
2019-02-14T10:35:14.968Z,74.2
2019-02-14T10:36:15.236Z,74.7
2019-02-14T10:37:15.507Z,74.2
2019-02-14T10:38:22.777Z,73.8
2019-02-14T10:39:15.118Z,73.9
2019-02-14T10:40:15.396Z,75.2
2019-02-14T10:41:15.453Z,74.4
2019-02-14T10:42:14.737Z,74.2
2019-02-14T10:43:15.009Z,73.8
2019-02-14T10:44:15.267Z,74.4
2019-02-14T10:45:15.547Z,73.4
2019-02-14T10:46:14.817Z,72.7
2019-02-14T10:47:15.091Z,71.8
2019-02-14T10:48:15.357Z,71.5
2019-02-14T10:49:14.627Z,71.5
2019-02-14T10:50:14.911Z,71.7
2019-02-14T10:51:14.981Z,72.7
2019-02-14T10:52:15.249Z,72.8
2019-02-14T10:53:15.528Z,72.9
2019-02-14T10:54:14.798Z,71.9
2019-02-14T10:55:15.087Z,71.0
2019-02-14T10:56:15.363Z,71.0
2019-02-14T10:57:14.625Z,70.6
2019-02-14T10:58:14.881Z,71.0
2019-02-14T10:59:15.152Z,70.3
2019-02-14T11:00:16.549Z,70.3
2019-02-14T11:01:15.503Z,71.2
2019-02-14T11:02:14.772Z,70.0
2019-02-14T11:03:15.034Z,69.5
2019-02-14T11:04:15.293Z,70.2
2019-02-14T11:05:15.578Z,70.0
2019-02-14T11:06:14.863Z,70.2
2019-02-14T11:07:15.148Z,71.7
2019-02-14T11:08:15.411Z,70.8
2019-02-14T11:09:14.683Z,70.9
2019-02-14T11:10:14.949Z,69.8
2019-02-14T11:11:15.011Z,69.8
2019-02-14T11:12:15.276Z,70.0
2019-02-14T11:13:15.549Z,69.9
2019-02-14T11:14:14.827Z,69.4
2019-02-14T11:15:15.106Z,69.0
2019-02-14T11:16:15.372Z,69.2
2019-02-14T11:17:14.633Z,69.6
2019-02-14T11:18:14.900Z,69.7
2019-02-14T11:19:15.167Z,69.7
2019-02-14T11:20:15.439Z,69.7
2019-02-14T11:21:15.536Z,69.5
2019-02-14T11:22:14.806Z,69.0
2019-02-14T11:23:15.131Z,68.8
2019-02-14T11:24:15.416Z,69.0
2019-02-14T11:25:14.705Z,69.5
2019-02-14T11:26:14.973Z,70.4
2019-02-14T11:27:15.262Z,70.2
2019-02-14T11:28:15.530Z,70.9
2019-02-14T11:29:14.811Z,71.3
2019-02-14T11:30:15.089Z,71.5
2019-02-14T11:31:15.140Z,71.1
2019-02-14T11:32:15.411Z,70.9
2019-02-14T11:33:14.671Z,70.8
2019-02-14T11:34:14.941Z,71.5
2019-02-14T11:35:15.210Z,71.0
2019-02-14T11:36:15.472Z,71.0
2019-02-14T11:37:14.735Z,70.6
2019-02-14T11:38:15.030Z,71.7
2019-02-14T11:39:15.296Z,71.2
2019-02-14T11:40:15.577Z,71.0
2019-02-14T11:41:14.617Z,69.8
2019-02-14T11:42:14.890Z,69.5
2019-02-14T11:43:15.151Z,69.8
2019-02-14T11:44:15.409Z,69.6
2019-02-14T11:45:14.679Z,69.5
2019-02-14T11:46:14.938Z,69.5
2019-02-14T11:47:15.201Z,69.7
2019-02-14T11:48:15.470Z,69.0
2019-02-14T11:49:14.728Z,69.0
2019-02-14T11:50:15.002Z,68.7
2019-02-14T11:51:15.055Z,68.5
2019-02-14T11:52:15.391Z,68.0
2019-02-14T11:53:14.663Z,68.0
2019-02-14T11:54:14.928Z,68.4
2019-02-14T11:55:15.208Z,68.8
2019-02-14T11:56:15.468Z,68.5
2019-02-14T11:57:14.735Z,68.5
2019-02-14T11:58:15.008Z,68.2
2019-02-14T11:59:15.273Z,67.9
2019-02-14T12:00:15.552Z,67.6
2019-02-14T12:01:14.625Z,67.3
2019-02-14T12:02:14.894Z,67.4
2019-02-14T12:03:15.160Z,67.0
2019-02-14T12:04:15.424Z,67.0
2019-02-14T12:05:14.704Z,67.2
2019-02-14T12:06:17.963Z,65.8
2019-02-14T12:07:15.282Z,64.8
2019-02-14T12:08:15.562Z,65.0
2019-02-14T12:09:14.832Z,65.3
2019-02-14T12:10:15.109Z,65.5
2019-02-14T12:11:15.178Z,65.6
2019-02-14T12:12:15.441Z,66.0
2019-02-14T12:13:14.698Z,65.4
2019-02-14T12:14:14.974Z,63.8
2019-02-14T12:15:15.236Z,63.8
2019-02-14T12:16:15.504Z,63.7
2019-02-14T12:17:14.777Z,63.0
2019-02-14T12:18:15.052Z,62.7
2019-02-14T12:19:15.320Z,63.1
2019-02-14T12:20:14.604Z,62.5
2019-02-14T12:21:14.659Z,62.8
2019-02-14T12:22:14.923Z,62.4
2019-02-14T12:23:15.194Z,62.5
2019-02-14T12:24:15.475Z,62.2
2019-02-14T12:25:14.749Z,61.4
2019-02-14T12:26:15.021Z,61.2
2019-02-14T12:27:15.291Z,61.3
2019-02-14T12:28:15.574Z,61.0
2019-02-14T12:29:14.843Z,61.0
2019-02-14T12:30:15.128Z,60.5
2019-02-14T12:31:15.180Z,60.5
2019-02-14T12:32:15.456Z,60.5
2019-02-14T12:33:14.722Z,60.3
2019-02-14T12:34:14.997Z,61.0
2019-02-14T12:35:15.267Z,61.6
2019-02-14T12:36:15.562Z,61.8
2019-02-14T12:37:16.268Z,60.8
2019-02-14T12:38:15.540Z,60.6
2019-02-14T12:39:14.810Z,60.8
2019-02-14T12:40:15.091Z,61.8
2019-02-14T12:41:15.153Z,62.6
2019-02-14T12:42:15.424Z,61.6
2019-02-14T12:43:14.686Z,62.0
2019-02-14T12:44:14.956Z,61.8
2019-02-14T12:45:24.364Z,61.9
2019-02-14T12:46:15.011Z,62.1
2019-02-14T12:47:15.267Z,61.9
2019-02-14T12:48:15.821Z,62.7
2019-02-14T12:49:15.091Z,61.8
2019-02-14T12:50:15.360Z,61.8
2019-02-14T12:51:15.437Z,61.2
2019-02-14T12:52:14.700Z,61.4
2019-02-14T12:53:14.972Z,61.8
2019-02-14T12:54:15.240Z,61.6
2019-02-14T12:55:15.515Z,62.5
2019-02-14T12:56:14.770Z,61.6
2019-02-14T12:57:15.045Z,61.8
2019-02-14T12:58:15.313Z,62.5
2019-02-14T12:59:15.581Z,62.4
2019-02-14T13:00:14.876Z,62.6
2019-02-14T13:01:14.914Z,62.4
2019-02-14T13:02:15.171Z,61.9
2019-02-14T13:03:15.452Z,62.4
2019-02-14T13:04:14.720Z,61.6
2019-02-14T13:05:15.008Z,61.9
2019-02-14T13:06:15.271Z,61.5
2019-02-14T13:07:15.539Z,61.5
2019-02-14T13:08:14.830Z,61.2
2019-02-14T13:09:20.520Z,62.0
2019-02-14T13:10:14.825Z,61.5
2019-02-14T13:11:14.869Z,61.8
2019-02-14T13:12:15.134Z,61.2
2019-02-14T13:13:15.396Z,61.5
2019-02-14T13:14:14.672Z,61.8
2019-02-14T13:15:14.956Z,62.8
2019-02-14T13:16:15.226Z,62.7
2019-02-14T13:17:15.523Z,63.4
2019-02-14T13:18:14.797Z,63.9